Station: Hopetoun North  

  Atmospheric Gas Attenuation - ITU Rec 676-11   ----------------- dB/100km -----------------
Date Time Temp RH % AH g/m3 Dew Point Wind Direction Speed kph Gust kph Barometer mB Rainfall Since 9am 24GHz 47GHz 76GHz 122GHz 134GHz 241GHz
08/05 09:20 13.9 77 9.23 9.9 15 17 1035.4 0 20.9 27.7 43.3 113.6 108.6 374.0
08/05 09:10 13.3 79 9.13 9.7 15 19 1035.5 0 20.7 27.8 43.3 113.3 108.1 372.1
08/05 09:00 12.8 82 9.19 9.8 11 19 1035.5 0 20.9 28.0 43.8 114.7 109.6 377.4
08/05 08:50 12.4 86 9.4 10.1 7 11 1035.5 0 21.3 28.5 44.9 117.7 113.1 389.6
08/05 08:40 11.8 90 9.47 10.2 7 9 1035.5 0 21.5 28.8 45.5 119.4 115.0 396.1
08/05 08:30 11.3 93 9.49 10.2 7 11 1035.6 0 21.6 29.0 45.9 120.4 116.1 399.7
08/05 08:20 10.7 95 9.33 9.9 7 9 1035.6 0 21.3 29.0 45.6 119.5 114.7 394.8
08/05 08:10 10.1 97 9.17 9.6 7 9 1035.5 0 21.0 28.9 45.2 118.5 113.3 389.8
08/05 08:00 9.6 98 8.98 9.3 7 9 1035.5 0 20.6 28.7 44.7 117.1 111.3 382.7
08/05 07:50 9 99 8.73 8.8 7 7 1035.3 0 20.1 28.4 43.9 115.0 108.5 373.0
08/05 07:40 8.7 99 8.56 8.5 7 9 1035.3 0 19.7 28.2 43.3 113.5 106.5 365.8
08/05 07:30 8.4 99 8.4 8.3 7 9 1035.2 0 19.4 28.1 42.8 112.1 104.6 359.2
08/05 07:20 8.1 100 8.32 8.1 9 9 1035.1 0 19.2 28.0 42.6 111.5 103.9 356.5
08/05 07:10 7.8 99 8.08 7.6 6 7 1035.1 0 18.7 27.7 41.7 109.2 100.8 345.8
08/05 07:00 7.8 99 8.08 7.7 7 7 1034.9 0 18.7 27.7 41.7 109.2 100.8 345.8
08/05 06:50 7.7 99 8.03 7.5 7 7 1034.9 0 18.6 27.6 41.6 108.7 100.2 343.7
08/05 06:40 7.6 99 7.98 7.4 6 6 1034.8 0 18.5 27.6 41.4 108.3 99.6 341.6
08/05 06:30 7.6 99 7.98 7.5 7 7 1034.7 0 18.5 27.6 41.4 108.3 99.6 341.6
08/05 06:20 7.6 99 7.98 7.4 7 7 1034.6 0 18.5 27.6 41.4 108.3 99.6 341.6
08/05 06:10 7.6 99 7.98 7.4 7 7 1034.5 0 18.5 27.5 41.4 108.2 99.6 341.6
08/05 06:00 7.6 98 7.9 7.3 7 9 1034.5 0 18.4 27.4 41.0 107.3 98.5 337.6
08/05 05:50 7.8 98 8 7.5 9 9 1034.4 0 18.6 27.5 41.3 108.2 99.6 341.7
08/05 05:40 8 98 8.11 7.7 9 9 1034.4 0 18.8 27.6 41.7 109.2 100.9 346.3
08/05 05:30 8.3 98 8.26 8 9 9 1034.4 0 19.1 27.8 42.2 110.5 102.7 352.4
08/05 05:20 8.6 98 8.42 8.3 9 9 1034.3 0 19.4 28.0 42.7 111.9 104.5 359.0
08/05 05:10 8.6 98 8.42 8.3 9 9 1034.3 0 19.4 28.0 42.7 111.9 104.5 359.0
08/05 05:00 8.7 97 8.39 8.3 9 9 1034.2 0 19.4 27.9 42.5 111.4 104.0 357.0
08/05 04:50 8.8 97 8.45 8.3 7 7 1034.1 0 19.5 28.0 42.7 111.9 104.7 359.5
08/05 04:40 8.8 97 8.45 8.3 7 9 1034 0 19.5 28.0 42.7 111.9 104.7 359.5
08/05 04:30 8.9 97 8.5 8.4 9 9 1033.9 0 19.6 28.0 42.9 112.4 105.2 361.5
08/05 04:20 9 97 8.55 8.5 9 9 1033.8 0 19.7 28.1 43.1 112.8 105.8 363.5
08/05 04:10 8.9 97 8.5 8.4 9 11 1033.8 0 19.6 28.0 42.9 112.3 105.2 361.5
08/05 04:00 9.1 97 8.61 8.6 7 9 1033.8 0 19.8 28.1 43.3 113.3 106.5 366.0
08/05 03:50 9.2 96 8.58 8.6 7 7 1033.8 0 19.8 28.1 43.1 112.8 106.0 364.0
08/05 03:40 9.3 96 8.63 8.7 7 7 1033.9 0 19.9 28.1 43.2 113.3 106.5 366.1
08/05 03:30 9.3 95 8.54 8.5 7 9 1033.9 0 19.7 28.0 42.9 112.2 105.3 361.6
08/05 03:20 9.5 95 8.65 8.7 9 9 1034 0 19.9 28.1 43.2 113.2 106.6 366.2
08/05 03:10 9.4 95 8.59 8.6 7 7 1033.9 0 19.8 28.0 43.0 112.7 105.8 363.6
08/05 03:00 9.7 94 8.67 8.8 9 13 1033.9 0 19.9 28.1 43.2 113.2 106.5 366.2
08/05 02:50 9.9 93 8.69 8.9 9 13 1033.9 0 20.0 28.0 43.2 113.1 106.6 366.2
08/05 02:40 10.1 93 8.8 9.1 11 13 1033.9 0 20.2 28.2 43.5 114.1 107.8 370.8
08/05 02:30 9.9 95 8.87 9.1 11 13 1033.9 0 20.3 28.3 44.0 115.2 109.1 375.2
08/05 02:20 9.8 95 8.82 9 9 11 1033.9 0 20.2 28.3 43.8 114.7 108.5 373.2
08/05 02:10 9.9 95 8.87 9.1 9 11 1033.8 0 20.3 28.3 43.9 115.2 109.1 375.2
08/05 02:00 9.8 95 8.82 9 11 13 1033.7 0 20.2 28.3 43.8 114.7 108.5 373.1
08/05 01:50 9.7 95 8.76 8.9 11 11 1033.6 0 20.1 28.2 43.6 114.2 107.8 370.6
08/05 01:40 9.8 95 8.82 9 9 9 1033.6 0 20.2 28.3 43.8 114.7 108.5 373.1
08/05 01:30 9.8 94 8.72 8.9 9 9 1033.5 0 20.0 28.1 43.3 113.5 107.1 368.1
08/05 01:20 10.2 93 8.85 9.2 9 11 1033.5 0 20.3 28.2 43.7 114.5 108.4 372.6
08/05 01:10 10.3 93 8.91 9.3 11 11 1033.4 0 20.4 28.3 43.9 115.0 109.1 375.1
08/05 01:00 9.8 95 8.82 9 9 11 1033.4 0 20.2 28.3 43.8 114.7 108.5 373.0
08/05 00:50 9.3 93 8.36 8.3 7 7 1033.4 0 19.3 27.6 42.1 110.1 102.7 352.5
08/05 00:40 9.5 93 8.47 8.4 9 9 1033.4 0 19.5 27.8 42.4 111.1 103.9 357.1
08/05 00:30 9.7 93 8.58 8.6 13 15 1033.3 0 19.7 27.9 42.8 112.1 105.2 361.6
08/05 00:20 9.9 92 8.59 8.6 13 13 1033.3 0 19.7 27.8 42.7 111.9 105.1 361.1
08/05 00:10 9.9 92 8.59 8.6 11 13 1033.4 0 19.7 27.8 42.7 111.9 105.1 361.1
08/05 00:00 9.9 92 8.59 8.7 11 13 1033.5 0 19.7 27.8 42.7 111.9 105.1 361.2
07/05 23:50 10 91 8.55 8.6 11 13 1033.4 0 19.6 27.7 42.5 111.3 104.4 358.7
07/05 23:40 10.2 91 8.66 8.8 11 13 1033.5 0 19.9 27.9 42.9 112.3 105.7 363.2
07/05 23:30 10.3 91 8.72 8.9 9 11 1033.4 0 20.0 27.9 43.1 112.8 106.4 365.7
07/05 23:20 10.1 91 8.61 8.7 9 9 1033.5 0 19.8 27.8 42.7 111.8 105.1 361.2
07/05 23:10 10 91 8.55 8.6 9 11 1033.7 0 19.6 27.7 42.5 111.3 104.4 358.8
07/05 23:00 10 90 8.46 8.4 9 11 1033.7 0 19.5 27.6 42.1 110.3 103.2 354.4
07/05 22:50 10.4 89 8.58 8.6 11 13 1033.8 0 19.7 27.7 42.4 111.1 104.3 358.5
07/05 22:40 10.5 89 8.63 8.7 11 13 1033.8 0 19.8 27.7 42.6 111.5 104.9 360.4
07/05 22:30 10.7 88 8.65 8.8 13 13 1033.8 0 19.8 27.7 42.6 111.5 104.9 360.5
07/05 22:20 10.8 88 8.7 8.9 13 13 1033.8 0 19.9 27.8 42.7 111.9 105.4 362.5
07/05 22:10 10.9 87 8.66 8.8 13 13 1033.9 0 19.8 27.7 42.5 111.3 104.8 360.1
07/05 22:00 10.9 88 8.75 9 13 17 1033.9 0 20.0 27.8 42.9 112.3 106.0 364.5
07/05 21:50 11 88 8.81 9.1 13 15 1033.9 0 20.2 27.9 43.1 112.9 106.7 367.0
07/05 21:40 11 88 8.81 9.1 11 13 1033.9 0 20.2 27.9 43.1 112.9 106.7 367.0
07/05 21:30 11.1 88 8.87 9.2 9 11 1033.8 0 20.3 28.0 43.3 113.4 107.4 369.4
07/05 21:20 11.2 87 8.82 9.1 9 11 1033.7 0 20.2 27.8 43.0 112.7 106.6 366.5
07/05 21:10 11.4 87 8.93 9.3 7 11 1033.6 0 20.4 28.0 43.4 113.6 107.8 370.9
07/05 21:00 11.7 85 8.89 9.3 7 9 1033.6 0 20.3 27.8 43.0 112.7 106.8 367.5
07/05 20:50 12 83 8.85 9.3 9 9 1033.5 0 20.2 27.6 42.7 111.8 105.9 364.1
07/05 20:40 12.4 83 9.07 9.6 13 15 1033.4 0 20.6 27.9 43.4 113.7 108.3 372.9
07/05 20:30 12.4 83 9.07 9.6 11 17 1033.3 0 20.6 27.9 43.4 113.7 108.3 372.8
07/05 20:20 12.6 83 9.18 9.8 13 15 1033.3 0 20.9 28.0 43.7 114.7 109.6 377.2
07/05 20:10 12.7 83 9.24 9.9 13 15 1033.4 0 21.0 28.1 43.9 115.2 110.3 379.7
07/05 20:00 12.6 84 9.29 10 13 15 1033.4 0 21.1 28.2 44.2 115.9 111.1 382.6
07/05 19:50 12.7 83 9.24 10 11 13 1033.5 0 21.0 28.1 44.0 115.2 110.3 379.7
07/05 19:40 13 82 9.3 10 11 13 1033.6 0 21.1 28.1 44.0 115.5 110.7 381.2
07/05 19:30 13.3 81 9.36 10.1 11 17 1033.6 0 21.2 28.1 44.1 115.7 111.1 382.6
07/05 19:20 13.6 81 9.53 10.4 11 13 1033.6 0 21.6 28.3 44.7 117.2 113.0 389.4
07/05 19:10 13.7 80 9.47 10.3 9 13 1033.5 0 21.4 28.1 44.4 116.3 112.0 386.0
07/05 19:00 13.9 80 9.59 10.5 13 19 1033.5 0 21.7 28.3 44.8 117.4 113.4 390.8
07/05 18:50 14.1 81 9.83 10.9 13 17 1033.3 0 22.2 28.6 45.6 119.8 116.4 401.4
07/05 18:40 14.4 80 9.89 11 11 13 1033.3 0 22.3 28.6 45.7 120.0 116.8 402.7
07/05 18:30 14.7 79 9.95 11.1 15 19 1033.1 0 22.4 28.6 45.8 120.2 117.2 404.0
07/05 18:20 14.9 78 9.94 11.1 15 19 1033 0 22.4 28.5 45.6 119.7 116.7 402.5
07/05 18:10 15.3 76 9.92 11.1 15 19 1033 0 22.3 28.4 45.3 118.9 115.8 399.5
07/05 18:00 15.3 76 9.92 11.1 15 22 1032.9 0 22.3 28.4 45.3 118.9 115.8 399.4
07/05 17:50 15.3 76 9.92 11.1 17 19 1032.9 0 22.3 28.4 45.3 118.9 115.8 399.4
07/05 17:40 15.5 76 10.05 11.3 15 19 1032.8 0 22.6 28.5 45.7 120.0 117.3 404.6
07/05 17:30 15.5 76 10.05 11.3 15 19 1032.7 0 22.6 28.5 45.7 120.0 117.3 404.6
07/05 17:20 15.4 75 9.85 11 15 17 1032.7 0 22.1 28.2 45.0 117.9 114.7 395.5
07/05 17:10 15.3 76 9.92 11.1 13 15 1032.8 0 22.3 28.4 45.3 118.9 115.8 399.4
07/05 17:00 15.5 79 10.44 11.9 9 13 1032.8 0 23.4 29.2 47.4 124.4 122.7 423.5
07/05 16:50 15.8 76 10.23 11.7 9 9 1032.8 0 22.9 28.7 46.3 121.6 119.3 411.7

Last Refresh: 08-May-2026 11:04:26

Bureau of Meteorology